Time;durP1;ratioP1;P1;durP2;ratioP2;P2;SDS_P1;SDS_P2;PMS_P1;PMS_P2;Temp;Humidity;BMP_temperature;BMP_pressure;BME280_temperature;BME280_humidity;BME280_pressure;Samples;Min_cycle;Max_cycle;Signal;HPM_P1;HPM_P2
2023/10/04 00:00:21;;;;;;;25.70;18.95;;;;;;;15.55;100.00;93124.00;5014005;28;20041;-80
2023/10/04 00:02:51;;;;;;;27.98;19.05;;;;;;;15.56;100.00;93128.22;5014033;28;20033;-80
2023/10/04 00:05:19;;;;;;;29.33;19.45;;;;;;;15.50;100.00;93127.53;5014118;28;20458;-80
2023/10/04 00:07:50;;;;;;;27.58;20.42;;;;;;;15.52;100.00;93137.81;5014496;28;20037;-81
2023/10/04 00:10:17;;;;;;;31.20;21.10;;;;;;;15.47;100.00;93138.72;5014308;28;20370;-80
2023/10/04 00:12:44;;;;;;;31.33;20.23;;;;;;;15.47;100.00;93132.63;5013784;28;20539;-81
2023/10/04 00:15:13;;;;;;;29.58;20.73;;;;;;;15.45;100.00;93130.31;5012947;28;20489;-80
2023/10/04 00:17:42;;;;;;;27.50;19.77;;;;;;;15.46;100.00;93133.72;5013782;28;20513;-80
2023/10/04 00:20:17;;;;;;;24.52;17.60;;;;;;;15.47;100.00;93133.44;5013886;28;20040;-80
2023/10/04 00:22:43;;;;;;;27.23;18.00;;;;;;;15.45;100.00;93125.03;5029044;28;20505;-80
2023/10/04 00:25:25;;;;;;;25.23;19.08;;;;;;;15.42;100.00;93128.25;5012552;28;20030;-81
2023/10/04 00:27:56;;;;;;;24.35;17.70;;;;;;;15.38;100.00;93125.47;5028537;28;20033;-80
2023/10/04 00:30:25;;;;;;;26.80;17.27;;;;;;;15.36;100.00;93127.59;5012273;28;20034;-80
2023/10/04 00:32:53;;;;;;;26.15;18.08;;;;;;;15.35;100.00;93133.19;5013147;28;20024;-80
2023/10/04 00:35:20;;;;;;;27.42;18.90;;;;;;;15.33;100.00;93122.94;5012028;28;20045;-80
2023/10/04 00:37:48;;;;;;;29.15;19.42;;;;;;;15.32;100.00;93120.59;5014229;28;20037;-80
2023/10/04 00:40:21;;;;;;;26.02;17.65;;;;;;;15.32;100.00;93120.59;5028756;28;20406;-79
2023/10/04 00:42:51;;;;;;;24.77;17.52;;;;;;;15.29;100.00;93115.91;5013170;28;20482;-81
2023/10/04 00:45:19;;;;;;;21.98;16.33;;;;;;;15.25;100.00;93115.75;5013518;28;20030;-81
2023/10/04 00:47:50;;;;;;;22.58;17.50;;;;;;;15.23;100.00;93120.53;5013077;28;20073;-81
2023/10/04 00:50:20;;;;;;;26.45;18.58;;;;;;;15.22;100.00;93115.53;5018132;28;20045;-81
2023/10/04 00:53:29;;;;;;;28.30;17.60;;;;;;;15.22;100.00;93107.63;5013166;28;20030;-81
2023/10/04 00:55:57;;;;;;;22.65;15.82;;;;;;;15.17;100.00;93111.94;5000433;28;20058;-79
2023/10/04 00:58:23;;;;;;;22.00;15.35;;;;;;;15.15;100.00;93102.78;5019252;28;20046;-80
2023/10/04 01:00:49;;;;;;;22.70;15.05;;;;;;;15.13;100.00;93112.84;5012806;28;20040;-81
2023/10/04 01:03:19;;;;;;;22.58;16.63;;;;;;;15.11;100.00;93105.25;5012350;28;20057;-80
2023/10/04 01:05:47;;;;;;;24.52;14.80;;;;;;;15.12;100.00;93114.69;5012440;28;20050;-80
2023/10/04 01:08:17;;;;;;;20.77;13.60;;;;;;;15.09;100.00;93102.13;5015595;28;20468;-81
2023/10/04 01:10:44;;;;;;;17.42;11.90;;;;;;;15.08;100.00;93105.81;5017370;28;20493;-81
2023/10/04 01:13:11;;;;;;;13.02;7.97;;;;;;;15.04;100.00;93104.88;5016644;28;20048;-80
2023/10/04 01:15:39;;;;;;;9.93;6.32;;;;;;;15.00;100.00;93109.19;5016007;28;20030;-80
2023/10/04 01:18:11;;;;;;;9.50;5.80;;;;;;;14.95;100.00;93104.81;5015335;28;20622;-80
2023/10/04 01:20:40;;;;;;;7.97;5.32;;;;;;;14.91;100.00;93100.44;5015327;28;20025;-81
2023/10/04 01:23:10;;;;;;;12.23;6.10;;;;;;;14.90;100.00;93098.84;5017348;28;20033;-81
2023/10/04 01:25:44;;;;;;;14.40;9.02;;;;;;;14.92;100.00;93097.47;5015914;28;20037;-80
2023/10/04 01:28:12;;;;;;;20.20;12.07;;;;;;;14.94;100.00;93105.09;5014589;28;20516;-81
2023/10/04 01:30:42;;;;;;;19.73;13.30;;;;;;;14.99;100.00;93103.16;5031773;28;20034;-80
2023/10/04 01:33:18;;;;;;;18.33;12.10;;;;;;;15.01;100.00;93100.19;5015445;28;20038;-79
2023/10/04 01:35:46;;;;;;;19.52;13.02;;;;;;;15.02;100.00;93103.59;5010173;28;20053;-81
2023/10/04 01:38:13;;;;;;;23.98;14.60;;;;;;;15.01;100.00;93100.19;5016750;28;20030;-79
2023/10/04 01:40:39;;;;;;;20.33;12.63;;;;;;;15.05;100.00;93100.38;5024386;28;20469;-80
2023/10/04 01:43:17;;;;;;;17.00;11.95;;;;;;;15.02;100.00;93103.59;5016331;28;20041;-80
2023/10/04 01:45:44;;;;;;;20.17;13.27;;;;;;;15.00;100.00;93103.91;5017099;28;20030;-80
2023/10/04 01:48:10;;;;;;;21.92;12.90;;;;;;;14.99;100.00;93092.59;5016796;28;20034;-80
2023/10/04 01:50:36;;;;;;;19.33;13.27;;;;;;;14.94;100.00;93089.28;5016964;28;20707;-79
2023/10/04 01:53:02;;;;;;;19.05;13.70;;;;;;;14.92;100.00;93096.72;5017125;28;20030;-80
2023/10/04 01:55:28;;;;;;;21.80;14.20;;;;;;;14.94;100.00;93090.06;4999564;28;20048;-81
2023/10/04 01:57:54;;;;;;;19.50;13.98;;;;;;;14.92;100.00;93089.56;5020440;28;20401;-81
2023/10/04 02:00:20;;;;;;;23.30;14.52;;;;;;;14.90;100.00;93091.72;5014976;28;20033;-81
2023/10/04 02:02:47;;;;;;;18.05;12.80;;;;;;;14.88;100.00;93082.56;5016168;28;20034;-81
2023/10/04 02:05:16;;;;;;;10.57;7.28;;;;;;;14.86;100.00;93084.72;5014881;28;20116;-81
2023/10/04 02:07:45;;;;;;;13.43;7.82;;;;;;;14.87;100.00;93089.69;5016027;28;20495;-81
2023/10/04 02:10:17;;;;;;;8.70;6.00;;;;;;;15.01;100.00;93081.75;5031529;28;20670;-81
2023/10/04 02:12:43;;;;;;;7.45;3.65;;;;;;;14.99;100.00;93081.25;5015997;28;20084;-79
2023/10/04 02:15:14;;;;;;;6.32;3.20;;;;;;;15.06;100.00;93089.53;5014361;28;20042;-80
2023/10/04 02:17:44;;;;;;;5.90;3.38;;;;;;;15.08;100.00;93089.22;5016038;28;20045;-81
2023/10/04 02:20:21;;;;;;;4.50;2.60;;;;;;;15.22;100.00;93087.34;5014709;28;20034;-79
2023/10/04 02:22:47;;;;;;;4.28;2.30;;;;;;;15.32;100.00;93086.31;5015973;28;20025;-79
2023/10/04 02:25:14;;;;;;;16.20;11.27;;;;;;;15.55;100.00;93085.19;5015305;28;20063;-79
2023/10/04 02:27:41;;;;;;;17.73;13.07;;;;;;;15.61;100.00;93070.81;5014743;28;20452;-79
2023/10/04 02:30:13;;;;;;;13.95;8.48;;;;;;;15.60;100.00;93076.38;5015707;28;20061;-80
2023/10/04 02:32:41;;;;;;;5.95;3.75;;;;;;;15.50;100.00;93080.06;5023336;28;20513;-79
2023/10/04 02:35:10;;;;;;;7.63;4.90;;;;;;;15.41;100.00;93081.88;5014527;28;20037;-79
2023/10/04 02:37:35;;;;;;;8.35;4.32;;;;;;;15.33;100.00;93085.22;5013525;28;20037;-79
2023/10/04 02:40:14;;;;;;;11.40;6.03;;;;;;;15.25;100.00;93080.69;4997944;28;20042;-79
2023/10/04 02:42:41;;;;;;;8.75;3.70;;;;;;;15.22;100.00;93084.69;5013855;28;20040;-80
2023/10/04 02:45:08;;;;;;;7.65;4.20;;;;;;;15.14;100.00;93080.13;5014570;28;20049;-80
2023/10/04 02:47:33;;;;;;;9.95;4.68;;;;;;;15.06;100.00;93089.53;5011143;28;20038;-81
2023/10/04 02:49:59;;;;;;;7.00;3.90;;;;;;;14.98;100.00;93098.16;5013921;28;20056;-80
2023/10/04 02:52:25;;;;;;;8.07;4.63;;;;;;;14.88;100.00;93090.47;5014082;28;20038;-79
2023/10/04 02:54:50;;;;;;;10.85;6.80;;;;;;;14.83;100.00;93085.31;5013288;28;20045;-80
2023/10/04 02:57:16;;;;;;;8.95;5.80;;;;;;;14.77;100.00;93090.69;5012891;28;20460;-81
2023/10/04 02:59:42;;;;;;;11.00;6.75;;;;;;;14.73;100.00;93089.72;5013832;28;20501;-81
2023/10/04 03:02:08;;;;;;;10.18;6.38;;;;;;;14.72;100.00;93088.16;5013305;28;20018;-80
2023/10/04 03:04:33;;;;;;;11.93;7.88;;;;;;;14.70;100.00;93090.34;5005357;28;20049;-80
2023/10/04 03:07:02;;;;;;;11.93;7.13;;;;;;;14.68;100.00;93087.22;5013161;28;20049;-81
2023/10/04 03:09:28;;;;;;;12.18;7.55;;;;;;;14.64;100.00;93091.50;5014790;28;20128;-80
2023/10/04 03:11:54;;;;;;;10.77;6.68;;;;;;;14.61;100.00;93096.59;5014790;28;20076;-80
2023/10/04 03:14:19;;;;;;;9.77;6.82;;;;;;;14.57;100.00;93096.41;5029808;28;20069;-79
2023/10/04 03:16:45;;;;;;;11.65;7.68;;;;;;;14.56;100.00;93094.84;5012530;28;20116;-79
2023/10/04 03:19:11;;;;;;;11.60;8.15;;;;;;;14.56;100.00;93100.09;4997372;28;20132;-80
2023/10/04 03:21:44;;;;;;;13.65;9.23;;;;;;;14.54;100.00;93095.13;4994490;28;20092;-79
2023/10/04 03:24:10;;;;;;;8.07;4.55;;;;;;;14.56;100.00;93095.59;5012917;28;20046;-81
2023/10/04 03:26:37;;;;;;;8.35;4.88;;;;;;;14.60;100.00;93100.31;5028579;28;20041;-79
2023/10/04 03:29:07;;;;;;;7.57;4.80;;;;;;;14.64;100.00;93106.56;5014524;28;20104;-80
2023/10/04 03:31:36;;;;;;;6.63;2.78;;;;;;;14.62;100.00;93104.19;5015764;28;20528;-81
2023/10/04 03:34:04;;;;;;;4.55;2.30;;;;;;;14.69;100.00;93104.56;5026257;28;20046;-80
2023/10/04 03:36:34;;;;;;;3.50;1.88;;;;;;;14.75;100.00;93103.41;5013896;28;20038;-79
2023/10/04 03:39:03;;;;;;;15.63;9.38;;;;;;;14.81;100.00;93098.00;5018104;28;20085;-81
2023/10/04 03:41:30;;;;;;;9.82;5.40;;;;;;;14.92;100.00;93097.47;4998164;28;20069;-81
2023/10/04 03:44:03;;;;;;;4.35;2.17;;;;;;;14.82;100.00;93107.50;5019735;28;20089;-81
2023/10/04 03:46:31;;;;;;;4.07;1.70;;;;;;;14.80;100.00;93107.78;5029745;28;20050;-82
2023/10/04 03:48:59;;;;;;;4.50;2.03;;;;;;;14.80;100.00;93099.09;5016972;28;20153;-79
2023/10/04 03:51:24;;;;;;;3.80;1.77;;;;;;;14.74;100.00;93106.31;5013754;28;20074;-81
2023/10/04 03:53:54;;;;;;;3.30;1.60;;;;;;;14.70;100.00;93105.34;5017558;28;20034;-81
2023/10/04 03:56:23;;;;;;;10.25;2.10;;;;;;;14.67;100.00;93112.00;5028403;28;20045;-81
2023/10/04 03:58:50;;;;;;;2.58;1.50;;;;;;;14.66;100.00;93115.72;5014749;28;20513;-81
2023/10/04 04:01:16;;;;;;;3.70;2.00;;;;;;;14.62;100.00;93122.66;5012777;28;20123;-80
2023/10/04 04:03:44;;;;;;;3.83;1.80;;;;;;;14.61;100.00;93126.34;5017180;28;20029;-81
2023/10/04 04:06:11;;;;;;;6.68;1.70;;;;;;;14.58;100.00;93119.03;5030052;28;20057;-80
2023/10/04 04:08:37;;;;;;;4.97;1.60;;;;;;;14.57;100.00;93128.03;5009617;28;20040;-80
2023/10/04 04:11:05;;;;;;;3.80;1.40;;;;;;;14.63;100.00;93126.81;5013330;28;20046;-80
2023/10/04 04:13:31;;;;;;;8.48;2.40;;;;;;;14.66;100.00;93126.25;4996848;28;20035;-80
2023/10/04 04:15:56;;;;;;;6.40;1.70;;;;;;;14.70;100.00;93137.75;5025943;28;20042;-81
2023/10/04 04:18:25;;;;;;;6.20;1.70;;;;;;;14.75;100.00;93131.59;5030206;28;20088;-80
2023/10/04 04:20:53;;;;;;;3.42;1.63;;;;;;;14.77;100.00;93135.50;5021729;28;20046;-80
2023/10/04 04:23:21;;;;;;;4.00;1.70;;;;;;;14.82;100.00;93137.25;5020414;28;20030;-80
2023/10/04 04:25:48;;;;;;;4.32;1.38;;;;;;;14.83;100.00;93138.03;5013160;28;20421;-81
2023/10/04 04:28:17;;;;;;;2.90;1.30;;;;;;;14.84;100.00;93144.84;5002726;28;20037;-81
2023/10/04 04:30:43;;;;;;;2.70;1.48;;;;;;;14.88;100.00;93151.09;4997227;28;20551;-80
2023/10/04 04:33:10;;;;;;;16.55;8.57;;;;;;;15.02;100.00;93149.22;5007302;28;20037;-80
2023/10/04 04:38:19;;;;;;;19.33;11.25;;;;;;;15.00;100.00;93138.19;5021497;28;20044;-78
2023/10/04 04:40:48;;;;;;;16.20;10.65;;;;;;;14.91;100.00;93147.88;5004783;28;20040;-80
2023/10/04 04:43:25;;;;;;;14.57;8.18;;;;;;;14.82;100.00;93147.78;4995846;28;20032;-78
2023/10/04 04:45:58;;;;;;;9.20;5.38;;;;;;;14.68;100.00;93139.91;4993820;28;20049;-79
2023/10/04 04:48:35;;;;;;;11.02;6.78;;;;;;;14.61;100.00;93142.16;5014729;28;20044;-79
2023/10/04 04:53:33;;;;;;;4.22;2.20;;;;;;;14.56;100.00;93144.88;5012045;28;19917;-78
2023/10/04 04:56:00;;;;;;;3.03;1.73;;;;;;;14.65;100.00;93156.28;5009990;28;20092;-82
2023/10/04 04:58:28;;;;;;;7.32;1.90;;;;;;;14.65;100.00;93158.16;4995822;28;20030;-81
2023/10/04 05:01:02;;;;;;;3.42;2.05;;;;;;;14.73;100.00;93163.53;5010829;28;20057;-80
2023/10/04 05:03:29;;;;;;;4.82;2.45;;;;;;;14.70;100.00;93161.47;5028109;28;20061;-81
2023/10/04 05:05:55;;;;;;;4.20;1.90;;;;;;;14.69;100.00;93164.41;5012320;28;20325;-81
2023/10/04 05:08:22;;;;;;;4.30;1.80;;;;;;;14.65;100.00;93163.44;5011793;28;20042;-86
2023/10/04 05:10:51;;;;;;;10.85;7.05;;;;;;;14.75;100.00;93166.63;5010984;28;20061;-84
2023/10/04 05:13:20;;;;;;;7.05;3.83;;;;;;;14.68;100.00;93161.00;5007591;28;20045;-83
2023/10/04 05:15:47;;;;;;;5.22;2.40;;;;;;;14.63;100.00;93161.06;5010620;28;20068;-84
2023/10/04 05:18:17;;;;;;;5.07;2.00;;;;;;;14.61;100.00;93181.66;5011214;28;20254;-83
2023/10/04 05:20:53;;;;;;;4.30;1.90;;;;;;;14.60;100.00;93172.22;5012396;28;20120;-82
2023/10/04 05:23:24;;;;;;;3.03;1.33;;;;;;;14.57;100.00;93181.50;5010714;28;20478;-82
2023/10/04 05:25:52;;;;;;;3.58;1.42;;;;;;;14.57;100.00;93183.34;5010493;28;20100;-82
2023/10/04 05:28:18;;;;;;;4.32;1.60;;;;;;;14.57;100.00;93191.25;5011219;28;20034;-81
2023/10/04 05:30:45;;;;;;;5.35;1.45;;;;;;;14.59;100.00;93197.00;5011263;28;20493;-82
2023/10/04 05:33:15;;;;;;;2.70;1.48;;;;;;;14.62;100.00;93196.41;5010662;28;20091;-82
2023/10/04 05:35:43;;;;;;;4.45;1.60;;;;;;;14.61;100.00;93197.47;5011324;28;20533;-82
2023/10/04 05:38:12;;;;;;;4.18;1.55;;;;;;;14.66;100.00;93193.97;5009900;28;20065;-80
2023/10/04 05:40:39;;;;;;;2.95;1.58;;;;;;;14.74;100.00;93206.47;5010361;28;20092;-83
2023/10/04 05:43:08;;;;;;;4.25;1.70;;;;;;;14.85;100.00;93196.50;5005540;28;20121;-81
2023/10/04 05:45:34;;;;;;;3.50;1.70;;;;;;;15.23;100.00;93202.28;5010968;28;20088;-82
2023/10/04 05:48:00;;;;;;;4.32;1.40;;;;;;;15.80;100.00;93199.19;5012108;28;20460;-82
2023/10/04 05:50:26;;;;;;;2.63;1.40;;;;;;;16.29;100.00;93205.38;5012347;28;20029;-82
2023/10/04 05:52:53;;;;;;;5.03;2.10;;;;;;;16.61;100.00;93206.88;5011642;28;20509;-83
2023/10/04 05:55:22;;;;;;;5.18;2.90;;;;;;;17.14;100.00;93205.19;5014430;28;20049;-83
2023/10/04 05:57:52;;;;;;;4.70;2.58;;;;;;;17.67;100.00;93220.03;5019933;28;20034;-83
2023/10/04 06:00:33;;;;;;;5.40;1.95;;;;;;;18.25;100.00;93233.06;5015888;28;20076;-83
2023/10/04 06:03:07;;;;;;;4.18;1.95;;;;;;;18.80;100.00;93232.31;5009668;28;20689;-83
2023/10/04 06:05:37;;;;;;;4.70;2.17;;;;;;;19.33;99.20;93233.56;5013573;28;20811;-83
2023/10/04 06:08:27;;;;;;;3.60;1.70;;;;;;;19.74;98.98;93236.59;4998792;28;20030;-83
2023/10/04 06:10:53;;;;;;;3.42;1.80;;;;;;;20.25;92.26;93244.47;5011446;28;20498;-83
2023/10/04 06:13:22;;;;;;;4.93;1.75;;;;;;;20.74;86.99;93256.00;4996292;28;20037;-83
2023/10/04 06:15:50;;;;;;;3.95;1.65;;;;;;;21.19;89.81;93257.03;5015470;28;20421;-82
2023/10/04 06:18:16;;;;;;;5.50;1.70;;;;;;;21.63;84.68;93262.56;5016791;28;20048;-83
2023/10/04 06:20:43;;;;;;;4.57;1.90;;;;;;;22.18;81.29;93265.63;5015047;28;20042;-82
2023/10/04 06:23:11;;;;;;;6.70;2.00;;;;;;;22.60;72.92;93266.00;5006690;28;20034;-82
2023/10/04 06:25:44;;;;;;;4.32;1.73;;;;;;;22.99;72.21;93266.25;5014374;28;20038;-83
2023/10/04 06:28:10;;;;;;;3.80;1.75;;;;;;;23.46;69.28;93272.63;5014626;28;20493;-82
2023/10/04 06:30:36;;;;;;;4.85;1.90;;;;;;;24.05;67.29;93278.91;5013892;28;20045;-83
2023/10/04 06:33:04;;;;;;;3.38;1.70;;;;;;;24.38;62.24;93280.28;5014292;28;20069;-82
2023/10/04 06:35:32;;;;;;;3.80;2.03;;;;;;;24.76;58.63;93278.72;5012909;28;20041;-83
2023/10/04 06:38:05;;;;;;;3.92;1.80;;;;;;;25.12;54.89;93283.53;5009762;28;20135;-83
2023/10/04 06:40:32;;;;;;;3.22;1.70;;;;;;;25.45;52.51;93284.88;5014615;28;20081;-84
2023/10/04 06:43:05;;;;;;;5.82;2.03;;;;;;;25.98;52.17;93288.69;5015624;28;20519;-84
2023/10/04 06:45:31;;;;;;;4.78;2.10;;;;;;;26.35;53.38;93297.59;5010830;28;20034;-84
2023/10/04 06:47:58;;;;;;;3.13;1.90;;;;;;;26.72;49.56;93293.41;5010738;28;20034;-85
2023/10/04 06:50:32;;;;;;;6.22;2.38;;;;;;;27.21;47.47;93297.72;4979754;28;20460;-85
2023/10/04 06:53:01;;;;;;;4.00;2.10;;;;;;;27.68;46.24;93306.16;5008380;28;20046;-84
2023/10/04 06:55:27;;;;;;;4.75;2.10;;;;;;;27.73;43.92;93316.56;5028593;28;20033;-85
2023/10/04 06:57:53;;;;;;;9.88;4.00;;;;;;;28.06;51.05;93317.56;5024684;28;20034;-83
2023/10/04 07:00:21;;;;;;;7.47;4.22;;;;;;;28.54;51.77;93320.09;5014685;28;20041;-85
2023/10/04 07:02:54;;;;;;;8.00;3.40;;;;;;;28.44;47.51;93327.75;5013991;28;20126;-85
2023/10/04 07:05:22;;;;;;;6.80;4.38;;;;;;;28.09;48.49;93327.56;4998059;28;20514;-85
2023/10/04 07:07:51;;;;;;;7.07;3.90;;;;;;;28.41;48.64;93328.47;5015602;28;21361;-81
2023/10/04 07:10:20;;;;;;;4.40;2.63;;;;;;;28.64;41.74;93330.13;5014782;28;20410;-84
2023/10/04 07:12:47;;;;;;;5.72;2.10;;;;;;;28.98;41.46;93343.31;5016644;28;20041;-82
2023/10/04 07:15:14;;;;;;;3.97;2.05;;;;;;;28.88;39.44;93336.00;5016406;28;20089;-80
2023/10/04 07:17:41;;;;;;;5.75;3.33;;;;;;;27.78;47.53;93340.41;5032407;28;20061;-83
2023/10/04 07:20:13;;;;;;;4.78;2.28;;;;;;;27.42;41.52;93342.81;5016620;28;20041;-82
2023/10/04 07:22:38;;;;;;;9.32;5.57;;;;;;;26.87;54.28;93332.69;4999203;28;20048;-83
2023/10/04 07:25:07;;;;;;;8.13;4.82;;;;;;;26.01;59.57;93336.22;5013851;28;20034;-83
2023/10/04 07:27:33;;;;;;;9.65;6.35;;;;;;;25.25;70.17;93337.75;5013374;28;20046;-83
2023/10/04 07:29:58;;;;;;;7.85;4.60;;;;;;;24.92;64.06;93340.97;5013824;28;20068;-84
2023/10/04 07:32:25;;;;;;;7.20;3.20;;;;;;;25.17;55.85;93348.66;5013608;28;20464;-83
2023/10/04 07:34:50;;;;;;;9.40;6.75;;;;;;;24.86;79.35;93348.53;5016858;28;20080;-83
2023/10/04 07:37:16;;;;;;;7.80;4.00;;;;;;;24.75;59.76;93355.59;5007247;28;20038;-83
2023/10/04 07:39:42;;;;;;;8.02;4.57;;;;;;;24.62;63.54;93362.22;5014642;28;20037;-84
2023/10/04 07:42:07;;;;;;;10.43;7.55;;;;;;;24.10;79.85;93356.94;5015587;28;20072;-83
2023/10/04 07:44:33;;;;;;;10.45;6.07;;;;;;;24.01;72.32;93356.38;5013878;28;20057;-84
2023/10/04 07:47:00;;;;;;;22.75;8.35;;;;;;;23.90;83.04;93361.47;4980498;28;20061;-82
2023/10/04 07:49:26;;;;;;;10.38;7.03;;;;;;;23.41;81.09;93359.16;5015434;28;20026;-84
2023/10/04 07:51:52;;;;;;;13.35;8.73;;;;;;;22.66;88.86;93349.25;5015515;28;20025;-83
2023/10/04 07:54:19;;;;;;;11.07;7.10;;;;;;;22.54;84.82;93352.75;5013846;28;20042;-83
2023/10/04 07:56:46;;;;;;;13.80;7.40;;;;;;;21.80;91.14;93354.78;5012486;28;20275;-83
2023/10/04 07:59:12;;;;;;;11.50;7.97;;;;;;;21.52;95.01;93354.69;5015341;28;20026;-83
2023/10/04 08:01:39;;;;;;;11.45;6.20;;;;;;;21.39;92.43;93357.31;5005852;28;20029;-84
2023/10/04 08:04:07;;;;;;;8.15;6.20;;;;;;;21.29;91.95;93355.09;5014618;28;20107;-81
2023/10/04 08:06:35;;;;;;;8.77;5.22;;;;;;;21.09;82.82;93363.94;5012444;28;20186;-82
2023/10/04 08:09:04;;;;;;;8.52;5.10;;;;;;;21.08;84.75;93367.72;5015099;28;20041;-83
2023/10/04 08:11:32;;;;;;;8.27;5.40;;;;;;;21.12;84.95;93377.38;5012585;28;20094;-82
2023/10/04 08:13:58;;;;;;;7.55;4.85;;;;;;;21.22;78.71;93381.50;5027520;28;20536;-83
2023/10/04 08:16:24;;;;;;;20.00;7.68;;;;;;;21.35;96.34;93375.06;5012064;28;20038;-82
2023/10/04 08:18:49;;;;;;;11.02;6.43;;;;;;;21.65;96.68;93377.56;5011201;28;20041;-83
2023/10/04 08:21:15;;;;;;;13.45;7.75;;;;;;;21.90;100.00;93396.97;5010502;28;20038;-82
2023/10/04 08:23:41;;;;;;;12.23;8.02;;;;;;;21.92;100.00;93397.41;5008980;28;20107;-82
2023/10/04 08:26:14;;;;;;;10.63;6.95;;;;;;;21.61;100.00;93388.09;5008637;28;20073;-82
2023/10/04 08:28:41;;;;;;;12.57;5.13;;;;;;;21.69;82.41;93383.78;5014130;28;20064;-83
2023/10/04 08:31:13;;;;;;;8.57;5.18;;;;;;;21.41;87.87;93392.44;5016886;28;20037;-82
2023/10/04 08:33:39;;;;;;;12.70;5.80;;;;;;;21.35;85.80;93390.28;5025684;28;20030;-82
2023/10/04 08:36:10;;;;;;;12.57;6.78;;;;;;;21.30;97.77;93399.25;4990706;28;20042;-81
2023/10/04 08:38:37;;;;;;;9.00;4.53;;;;;;;20.91;90.71;93403.25;5011223;28;20029;-81
2023/10/04 08:41:04;;;;;;;9.02;5.00;;;;;;;20.90;84.05;93397.16;5007729;28;20495;-82
2023/10/04 08:43:33;;;;;;;16.38;7.72;;;;;;;21.10;100.00;93402.78;5010909;28;20060;-81
2023/10/04 08:45:59;;;;;;;9.88;6.00;;;;;;;21.05;93.57;93403.75;5012436;28;20038;-82
2023/10/04 08:48:29;;;;;;;9.93;5.18;;;;;;;21.38;88.30;93401.03;5010839;28;20065;-82
2023/10/04 08:51:13;;;;;;;13.90;7.43;;;;;;;21.67;100.00;93395.88;5009084;28;20105;-82
2023/10/04 08:54:21;;;;;;;8.65;5.22;;;;;;;21.83;86.87;93405.53;5007823;28;20123;-83
2023/10/04 08:57:13;;;;;;;7.50;4.10;;;;;;;22.28;73.54;93395.84;5007309;28;20532;-82
2023/10/04 08:59:40;;;;;;;12.23;7.72;;;;;;;22.18;96.81;93398.94;5014653;28;20038;-82
2023/10/04 09:02:10;;;;;;;12.38;7.18;;;;;;;21.89;97.10;93397.31;5013350;28;20485;-81
2023/10/04 09:04:39;;;;;;;11.52;8.35;;;;;;;21.85;100.00;93407.09;5007073;28;20046;-82
2023/10/04 09:07:08;;;;;;;10.35;6.38;;;;;;;21.74;93.09;93396.09;5009518;28;20117;-82
2023/10/04 09:09:38;;;;;;;14.25;6.82;;;;;;;21.91;96.57;93406.53;5011550;28;20030;-83
2023/10/04 09:12:06;;;;;;;12.40;7.00;;;;;;;22.02;94.93;93393.50;5012392;28;20049;-83
2023/10/04 09:14:33;;;;;;;14.00;7.78;;;;;;;22.18;97.22;93402.38;5013980;28;20034;-81
2023/10/04 09:17:13;;;;;;;12.27;7.85;;;;;;;22.13;98.82;93397.25;5014283;28;20108;-82
2023/10/04 09:19:41;;;;;;;12.30;7.72;;;;;;;22.05;96.55;93400.84;5014219;28;20521;-82
2023/10/04 09:22:08;;;;;;;12.23;6.63;;;;;;;21.96;92.82;93403.63;5012869;28;20116;-82
2023/10/04 09:24:54;;;;;;;15.35;8.35;;;;;;;21.82;100.00;93411.19;5019375;28;20106;-82
2023/10/04 09:27:21;;;;;;;11.73;7.93;;;;;;;22.07;100.00;93405.84;5009426;28;20413;-82
2023/10/04 09:29:48;;;;;;;11.65;7.53;;;;;;;22.13;100.00;93413.25;5010421;28;20124;-82
2023/10/04 09:32:16;;;;;;;12.10;7.85;;;;;;;22.12;95.77;93421.63;5016258;28;20092;-82
2023/10/04 09:34:58;;;;;;;11.80;7.68;;;;;;;22.01;100.00;93415.94;5017632;28;20398;-81
2023/10/04 09:37:23;;;;;;;12.88;7.78;;;;;;;21.89;98.87;93413.31;5017316;28;20033;-82
2023/10/04 09:39:49;;;;;;;11.07;7.88;;;;;;;21.68;99.26;93408.84;5024532;28;20527;-82
2023/10/04 09:42:14;;;;;;;10.52;7.72;;;;;;;21.60;98.08;93412.41;5017269;28;20040;-82
2023/10/04 09:44:40;;;;;;;13.95;8.13;;;;;;;21.64;100.00;93407.97;5016497;28;20450;-82
2023/10/04 09:47:09;;;;;;;14.15;7.70;;;;;;;21.39;100.00;93410.59;5014530;28;20490;-82
2023/10/04 09:49:37;;;;;;;13.68;8.00;;;;;;;21.06;100.00;93409.84;5016956;28;20041;-81
2023/10/04 09:52:14;;;;;;;11.35;7.18;;;;;;;20.67;100.00;93419.91;5016751;28;20052;-80
2023/10/04 09:54:40;;;;;;;13.65;8.13;;;;;;;20.17;100.00;93422.31;5016650;28;20042;-80
2023/10/04 09:57:08;;;;;;;15.02;7.75;;;;;;;19.75;100.00;93416.91;5009620;28;20129;-80
2023/10/04 09:59:37;;;;;;;11.43;8.15;;;;;;;19.64;100.00;93407.72;5016975;28;20566;-80
2023/10/04 10:02:07;;;;;;;12.35;7.45;;;;;;;19.65;100.00;93419.13;5013436;28;20064;-80
2023/10/04 10:04:41;;;;;;;11.10;7.22;;;;;;;20.20;100.00;93417.41;5015092;28;20498;-80
2023/10/04 10:07:20;;;;;;;10.65;6.88;;;;;;;20.59;100.00;93409.03;5016706;28;20108;-80
2023/10/04 10:10:16;;;;;;;11.40;7.40;;;;;;;20.79;100.00;93409.34;5017205;28;20046;-80
2023/10/04 10:12:43;;;;;;;10.77;7.13;;;;;;;20.48;100.00;93413.16;5016602;28;20041;-80
2023/10/04 10:15:11;;;;;;;9.50;6.90;;;;;;;20.15;100.00;93416.53;5018982;28;20021;-81
2023/10/04 10:17:40;;;;;;;9.18;6.30;;;;;;;20.35;100.00;93408.88;5008812;28;20462;-81
2023/10/04 10:20:09;;;;;;;9.85;6.43;;;;;;;20.77;100.00;93393.69;5009570;28;20034;-81
2023/10/04 10:23:00;;;;;;;9.23;5.60;;;;;;;21.04;98.54;93402.19;5023957;28;20022;-80
2023/10/04 10:25:27;;;;;;;8.13;5.57;;;;;;;21.09;100.00;93390.56;5007988;28;20091;-80
2023/10/04 10:27:57;;;;;;;8.07;5.05;;;;;;;21.16;92.64;93388.13;5016359;28;20077;-81
2023/10/04 10:30:24;;;;;;;7.82;4.93;;;;;;;21.27;93.00;93389.25;5015499;28;20030;-81
2023/10/04 10:32:54;;;;;;;10.23;4.95;;;;;;;21.38;89.81;93381.63;5014412;28;20041;-80
2023/10/04 10:35:57;;;;;;;8.77;4.95;;;;;;;21.48;91.04;93389.22;5016272;28;20465;-80
2023/10/04 10:38:30;;;;;;;8.57;5.53;;;;;;;21.88;86.43;93399.19;5015516;28;20030;-80
2023/10/04 10:40:56;;;;;;;8.75;5.93;;;;;;;22.21;88.98;93385.72;5015218;28;20045;-80
2023/10/04 10:43:22;;;;;;;9.07;5.70;;;;;;;22.63;89.36;93390.72;5014336;28;20049;-80
2023/10/04 10:45:47;;;;;;;14.50;5.50;;;;;;;22.89;83.68;93396.75;5015535;28;20049;-81
2023/10/04 10:48:13;;;;;;;8.32;5.63;;;;;;;23.10;87.15;93402.66;5014801;28;20044;-81
2023/10/04 10:50:42;;;;;;;9.95;6.45;;;;;;;22.55;87.25;93401.53;5015475;28;20041;-81
2023/10/04 10:53:10;;;;;;;9.43;6.45;;;;;;;22.42;91.77;93398.91;5015120;28;20444;-80
2023/10/04 10:55:37;;;;;;;11.40;7.13;;;;;;;22.54;92.91;93392.78;5015158;28;20065;-81
2023/10/04 10:58:03;;;;;;;10.80;6.60;;;;;;;22.42;89.90;93396.22;5014777;28;20048;-80
2023/10/04 11:00:32;;;;;;;11.18;6.15;;;;;;;22.51;91.78;93398.00;5015139;28;20034;-81
2023/10/04 11:03:00;;;;;;;10.23;5.95;;;;;;;22.48;88.33;93396.78;5013965;28;20402;-81
2023/10/04 11:05:26;;;;;;;11.13;6.90;;;;;;;21.97;92.56;93407.06;5014236;28;20072;-82
2023/10/04 11:07:54;;;;;;;8.60;6.40;;;;;;;22.12;96.78;93394.94;5012086;28;20493;-80
2023/10/04 11:10:23;;;;;;;11.80;7.00;;;;;;;22.11;92.13;93398.72;5016311;28;20056;-80
2023/10/04 11:12:57;;;;;;;8.73;5.88;;;;;;;22.27;96.24;93390.81;5017146;28;20402;-81
2023/10/04 11:15:23;;;;;;;8.80;5.35;;;;;;;22.17;92.85;93387.47;5017127;28;20038;-81
2023/10/04 11:17:53;;;;;;;13.35;7.50;;;;;;;22.12;95.11;93379.72;5016814;28;20046;-82
2023/10/04 11:20:18;;;;;;;12.38;7.03;;;;;;;22.24;92.70;93377.03;5016504;28;20037;-81
2023/10/04 11:22:45;;;;;;;11.30;6.05;;;;;;;22.13;93.47;93378.59;5016769;28;20034;-81
2023/10/04 11:25:13;;;;;;;13.15;7.97;;;;;;;22.03;96.21;93376.41;5016812;28;20037;-80
2023/10/04 11:27:43;;;;;;;10.88;7.30;;;;;;;22.10;99.42;93373.19;5017779;28;20037;-82
2023/10/04 11:30:27;;;;;;;13.82;7.97;;;;;;;22.08;100.00;93372.75;5017285;28;20046;-82
2023/10/04 11:32:52;;;;;;;13.57;8.43;;;;;;;22.02;97.16;93372.19;5017569;28;20048;-82
2023/10/04 11:35:19;;;;;;;12.68;8.38;;;;;;;22.03;93.08;93363.09;5018023;28;20033;-81